Time;durP1;ratioP1;P1;durP2;ratioP2;P2;SDS_P1;SDS_P2;PMS_P1;PMS_P2;Temp;Humidity;BMP_temperature;BMP_pressure;BME280_temperature;BME280_humidity;BME280_pressure;Samples;Min_cycle;Max_cycle;Signal;HPM_P1;HPM_P2
2023/04/20 00:01:48;;;;;;;;;;;;;;;14.83;44.51;101040.31;4907692;28;98902;-66
2023/04/20 00:04:15;;;;;;;;;;;;;;;14.83;44.48;101048.44;4903563;28;98029;-66
2023/04/20 00:06:43;;;;;;;;;;;;;;;14.82;44.15;101034.06;4922447;28;98475;-66
2023/04/20 00:09:11;;;;;;;;;;;;;;;14.80;44.59;101033.53;4922942;28;98607;-66
2023/04/20 00:11:39;;;;;;;;;;;;;;;14.79;44.62;101033.81;4932642;28;98290;-65
2023/04/20 00:14:07;;;;;;;;;;;;;;;14.78;44.49;101027.59;4919966;28;98288;-66
2023/04/20 00:16:34;;;;;;;;;;;;;;;14.78;44.71;101024.06;4919048;28;98104;-66
2023/04/20 00:19:00;;;;;;;;;;;;;;;14.76;44.68;101026.22;4922313;28;98401;-66
2023/04/20 00:21:27;;;;;;;;;;;;;;;14.75;44.28;101022.72;4920828;28;98059;-65
2023/04/20 00:23:54;;;;;;;;;;;;;;;14.75;44.67;101022.72;4900581;28;98127;-66
2023/04/20 00:26:21;;;;;;;;;;;;;;;14.74;44.29;101023.81;4923546;28;98279;-66
2023/04/20 00:28:49;;;;;;;;;;;;;;;14.72;44.27;101024.06;4922684;28;98301;-66
2023/04/20 00:31:16;;;;;;;;;;;;;;;14.71;44.73;101019.75;4919833;28;98083;-65
2023/04/20 00:33:43;;;;;;;;;;;;;;;14.71;44.46;101027.88;4919540;28;98200;-65
2023/04/20 00:36:10;;;;;;;;;;;;;;;14.69;44.76;101027.34;4920043;28;98212;-65
2023/04/20 00:38:37;;;;;;;;;;;;;;;14.69;44.32;101023.81;4933259;28;98909;-65
2023/04/20 00:41:04;;;;;;;;;;;;;;;14.67;44.51;101015.97;4898377;28;98561;-65
2023/04/20 00:43:31;;;;;;;;;;;;;;;14.67;44.41;101026.03;4921676;28;99138;-65
2023/04/20 00:45:58;;;;;;;;;;;;;;;14.66;44.47;101025.22;4923486;28;98150;-65
2023/04/20 00:48:25;;;;;;;;;;;;;;;14.66;44.35;101017.06;4919947;28;99965;-66
2023/04/20 00:50:52;;;;;;;;;;;;;;;14.66;44.59;101021.69;4921342;28;98023;-66
2023/04/20 00:53:19;;;;;;;;;;;;;;;14.64;44.20;101019.25;4903932;28;97957;-65
2023/04/20 00:55:46;;;;;;;;;;;;;;;14.64;44.71;101032.00;4920935;28;98308;-65
2023/04/20 00:58:13;;;;;;;;;;;;;;;14.63;44.85;101020.34;4919188;28;98214;-65
2023/04/20 01:00:40;;;;;;;;;;;;;;;14.61;44.53;101025.22;4933339;28;98344;-65
2023/04/20 01:03:07;;;;;;;;;;;;;;;14.61;44.27;101017.09;4921718;28;98992;-65
2023/04/20 01:05:35;;;;;;;;;;;;;;;14.59;44.62;101018.47;4904894;28;97931;-65
2023/04/20 01:08:02;;;;;;;;;;;;;;;14.60;44.63;101017.38;4919112;28;97980;-66
2023/04/20 01:10:29;;;;;;;;;;;;;;;14.59;44.18;101016.56;4919376;28;98625;-65
2023/04/20 01:12:56;;;;;;;;;;;;;;;14.58;44.49;101014.97;4924699;28;98493;-66
2023/04/20 01:15:23;;;;;;;;;;;;;;;14.56;44.57;101014.41;4917034;28;98801;-65
2023/04/20 01:17:51;;;;;;;;;;;;;;;14.55;44.42;101015.50;4920478;28;97989;-66
2023/04/20 01:20:19;;;;;;;;;;;;;;;14.55;44.65;101012.78;4916433;28;100699;-66
2023/04/20 01:22:49;;;;;;;;;;;;;;;14.54;44.59;101015.78;4919368;28;98116;-65
2023/04/20 01:25:16;;;;;;;;;;;;;;;14.52;44.67;101016.06;4922731;28;98093;-66
2023/04/20 01:27:43;;;;;;;;;;;;;;;14.51;44.57;101002.78;4921797;28;99240;-65
2023/04/20 01:30:11;;;;;;;;;;;;;;;14.50;44.69;101010.09;4920204;28;99676;-66
2023/04/20 01:32:38;;;;;;;;;;;;;;;14.49;44.47;101006.56;4897994;28;98134;-66
2023/04/20 01:35:06;;;;;;;;;;;;;;;14.48;44.51;101006.84;4900320;28;99725;-66
2023/04/20 01:37:33;;;;;;;;;;;;;;;14.46;44.69;101012.56;4921734;28;99975;-66
2023/04/20 01:40:00;;;;;;;;;;;;;;;14.45;44.42;101013.63;4918276;28;98430;-65
2023/04/20 01:42:28;;;;;;;;;;;;;;;14.44;44.72;101006.59;4923898;28;98110;-66
2023/04/20 01:44:56;;;;;;;;;;;;;;;14.43;44.34;101012.28;4920945;28;101509;-66
2023/04/20 01:47:24;;;;;;;;;;;;;;;14.41;44.31;101004.44;4921377;28;98351;-66
2023/04/20 01:49:51;;;;;;;;;;;;;;;14.40;44.28;101005.53;4922227;28;98092;-66
2023/04/20 01:52:18;;;;;;;;;;;;;;;14.40;44.41;101005.53;4918304;28;98249;-66
2023/04/20 01:54:45;;;;;;;;;;;;;;;14.38;44.40;100998.75;4921869;28;98136;-66
2023/04/20 01:57:12;;;;;;;;;;;;;;;14.37;44.75;101010.69;4920401;28;98376;-66
2023/04/20 01:59:39;;;;;;;;;;;;;;;14.36;44.75;101009.88;4922050;28;98156;-66
2023/04/20 02:02:06;;;;;;;;;;;;;;;14.35;44.42;101010.97;4900740;28;97987;-66
2023/04/20 02:04:34;;;;;;;;;;;;;;;14.34;44.30;101017.47;4921939;28;98270;-66
2023/04/20 02:07:01;;;;;;;;;;;;;;;14.33;44.49;101013.16;4901057;28;97945;-65
2023/04/20 02:09:28;;;;;;;;;;;;;;;14.32;44.51;101016.97;4902819;28;98099;-66
2023/04/20 02:11:55;;;;;;;;;;;;;;;14.32;44.34;101016.16;4914288;28;97982;-66
2023/04/20 02:14:23;;;;;;;;;;;;;;;14.30;44.36;101019.13;4918337;28;98249;-66
2023/04/20 02:16:51;;;;;;;;;;;;;;;14.30;44.48;101016.41;4907329;28;97951;-66
2023/04/20 02:19:20;;;;;;;;;;;;;;;14.30;44.62;101015.59;4921443;28;99288;-66
2023/04/20 02:21:46;;;;;;;;;;;;;;;14.30;44.59;101012.88;4920924;28;98167;-66
2023/04/20 02:24:13;;;;;;;;;;;;;;;14.29;44.52;101014.00;4932807;28;98196;-66
2023/04/20 02:26:40;;;;;;;;;;;;;;;14.29;44.37;101012.09;4919408;28;97918;-66
2023/04/20 02:29:07;;;;;;;;;;;;;;;14.29;44.44;101014.00;4900371;28;98021;-66
2023/04/20 02:31:34;;;;;;;;;;;;;;;14.29;44.28;101025.63;4920628;28;101615;-67
2023/04/20 02:34:01;;;;;;;;;;;;;;;14.29;44.38;101019.41;4919895;28;98580;-66
2023/04/20 02:36:28;;;;;;;;;;;;;;;14.26;44.47;101018.06;4935107;28;99993;-66
2023/04/20 02:38:57;;;;;;;;;;;;;;;14.29;44.64;101027.53;4904135;28;98007;-66
2023/04/20 02:41:23;;;;;;;;;;;;;;;14.27;44.61;101025.13;4920122;28;99784;-67
2023/04/20 02:43:50;;;;;;;;;;;;;;;14.27;44.62;101027.84;4916940;28;97949;-66
2023/04/20 02:46:18;;;;;;;;;;;;;;;14.27;44.35;101030.56;4899405;28;98123;-66
2023/04/20 02:48:46;;;;;;;;;;;;;;;14.26;44.70;101026.19;4921328;28;98596;-66
2023/04/20 02:51:13;;;;;;;;;;;;;;;14.25;44.54;101017.25;4916492;28;99387;-66
2023/04/20 02:53:39;;;;;;;;;;;;;;;14.25;44.35;101022.69;4918547;28;98427;-66
2023/04/20 02:56:06;;;;;;;;;;;;;;;14.25;44.33;101021.88;4899662;28;98011;-66
2023/04/20 02:58:33;;;;;;;;;;;;;;;14.24;44.67;101023.78;4899035;28;98103;-66
2023/04/20 03:01:01;;;;;;;;;;;;;;;14.23;44.34;101016.72;4917697;28;98033;-67
2023/04/20 03:03:28;;;;;;;;;;;;;;;14.23;44.62;101013.22;4934332;28;98447;-66
2023/04/20 03:05:55;;;;;;;;;;;;;;;14.22;44.34;101012.38;4919971;28;98192;-66
2023/04/20 03:08:22;;;;;;;;;;;;;;;14.22;44.31;101012.38;4917643;28;98077;-66
2023/04/20 03:10:48;;;;;;;;;;;;;;;14.22;44.46;101022.41;4922775;28;98133;-66
2023/04/20 03:13:15;;;;;;;;;;;;;;;14.20;44.43;101025.41;4916289;28;99055;-66
2023/04/20 03:15:43;;;;;;;;;;;;;;;14.20;44.37;101027.31;4913646;28;97889;-66
2023/04/20 03:18:11;;;;;;;;;;;;;;;14.19;44.71;101023.81;4904821;28;98647;-66
2023/04/20 03:20:39;;;;;;;;;;;;;;;14.18;44.32;101027.56;4922719;28;98145;-66
2023/04/20 03:23:06;;;;;;;;;;;;;;;14.18;44.48;101022.16;4921714;28;98225;-66
2023/04/20 03:25:35;;;;;;;;;;;;;;;14.17;44.26;101015.13;4918377;28;98369;-66
2023/04/20 03:28:03;;;;;;;;;;;;;;;14.16;44.40;101007.28;4917743;28;97973;-67
2023/04/20 03:30:30;;;;;;;;;;;;;;;14.16;44.73;101020.84;4919460;28;98115;-67
2023/04/20 03:32:56;;;;;;;;;;;;;;;14.15;44.63;101017.31;4917642;28;98101;-67
2023/04/20 03:35:24;;;;;;;;;;;;;;;14.13;44.63;101016.75;4919756;28;98087;-67
2023/04/20 03:37:51;;;;;;;;;;;;;;;14.12;44.31;101022.47;4920339;28;97998;-66
2023/04/20 03:40:17;;;;;;;;;;;;;;;14.12;44.57;101036.03;4919617;28;98933;-67
2023/04/20 03:42:45;;;;;;;;;;;;;;;14.10;44.38;101032.78;4903552;28;98427;-66
2023/04/20 03:45:12;;;;;;;;;;;;;;;14.09;44.47;101031.16;4899224;28;97986;-67
2023/04/20 03:47:39;;;;;;;;;;;;;;;14.08;44.50;101037.66;4921435;28;98130;-66
2023/04/20 03:50:06;;;;;;;;;;;;;;;14.07;44.41;101038.75;4926372;28;98015;-66
2023/04/20 03:52:35;;;;;;;;;;;;;;;14.06;44.59;101037.13;4920264;28;98085;-67
2023/04/20 03:55:01;;;;;;;;;;;;;;;14.05;44.72;101043.66;4897723;28;98190;-66
2023/04/20 03:57:29;;;;;;;;;;;;;;;14.03;44.45;101046.63;4903560;28;97996;-67
2023/04/20 03:59:56;;;;;;;;;;;;;;;14.02;44.77;101045.00;4899529;28;100253;-66
2023/04/20 04:02:23;;;;;;;;;;;;;;;14.02;44.65;101058.53;4918020;28;98251;-66
2023/04/20 04:04:50;;;;;;;;;;;;;;;14.02;44.53;101055.84;4917696;28;99628;-67
2023/04/20 04:07:17;;;;;;;;;;;;;;;14.02;44.40;101060.44;4918924;28;98223;-67
2023/04/20 04:09:43;;;;;;;;;;;;;;;14.01;44.34;101059.63;4915621;28;98197;-66
2023/04/20 04:12:10;;;;;;;;;;;;;;;14.00;44.34;101052.59;4928562;28;98236;-66
2023/04/20 04:14:39;;;;;;;;;;;;;;;14.00;44.41;101049.91;4902230;28;98041;-66
2023/04/20 04:17:06;;;;;;;;;;;;;;;14.00;44.31;101056.13;4917674;28;98304;-66
2023/04/20 04:19:33;;;;;;;;;;;;;;;14.00;44.75;101061.53;4920476;28;98116;-66
2023/04/20 04:22:00;;;;;;;;;;;;;;;13.99;44.58;101051.81;4900245;28;98266;-67
2023/04/20 04:24:27;;;;;;;;;;;;;;;13.99;44.38;101051.00;4914738;28;98265;-66
2023/04/20 04:26:57;;;;;;;;;;;;;;;13.99;44.75;101059.13;4918464;28;99080;-67
2023/04/20 04:29:24;;;;;;;;;;;;;;;13.99;44.71;101065.34;4918538;28;98377;-67
2023/04/20 04:31:51;;;;;;;;;;;;;;;13.99;44.68;101080.81;4898069;28;98368;-67
2023/04/20 04:34:19;;;;;;;;;;;;;;;13.98;44.59;101076.44;4898874;28;98613;-66
2023/04/20 04:36:46;;;;;;;;;;;;;;;13.97;44.41;101078.34;4920233;28;98442;-67
2023/04/20 04:39:13;;;;;;;;;;;;;;;13.97;44.71;101081.06;4920252;28;97963;-67
2023/04/20 04:41:40;;;;;;;;;;;;;;;13.96;44.75;101082.16;4917864;28;100701;-67
2023/04/20 04:44:07;;;;;;;;;;;;;;;13.95;44.76;101085.13;4917429;28;97953;-67
2023/04/20 04:46:35;;;;;;;;;;;;;;;13.95;44.34;101077.00;4918264;28;99024;-67
2023/04/20 04:49:03;;;;;;;;;;;;;;;13.95;44.74;101074.28;4918932;28;98031;-67
2023/04/20 04:51:30;;;;;;;;;;;;;;;13.95;44.52;101083.25;4920253;28;98142;-66
2023/04/20 04:53:57;;;;;;;;;;;;;;;13.95;44.46;101085.97;4918454;28;98487;-67
2023/04/20 04:56:24;;;;;;;;;;;;;;;13.95;44.25;101083.25;4916147;28;98241;-67
2023/04/20 04:58:51;;;;;;;;;;;;;;;13.96;44.78;101089.47;4928247;28;100606;-67
2023/04/20 05:01:20;;;;;;;;;;;;;;;13.94;44.43;101087.03;4897428;28;98874;-67
2023/04/20 05:03:47;;;;;;;;;;;;;;;13.95;44.59;101094.09;4916589;28;97971;-67
2023/04/20 05:06:14;;;;;;;;;;;;;;;13.94;44.37;101086.22;4900606;28;97980;-67
2023/04/20 05:08:41;;;;;;;;;;;;;;;13.96;44.30;101084.06;4919450;28;98238;-67
2023/04/20 05:11:08;;;;;;;;;;;;;;;13.95;44.25;101091.38;4916604;28;99414;-67
2023/04/20 05:13:34;;;;;;;;;;;;;;;13.98;44.61;101095.41;4905663;28;98612;-67
2023/04/20 05:16:01;;;;;;;;;;;;;;;14.00;44.29;101083.22;4917700;28;98011;-67
2023/04/20 05:18:28;;;;;;;;;;;;;;;14.01;44.67;101086.75;4918465;28;98393;-67
2023/04/20 05:20:55;;;;;;;;;;;;;;;14.02;44.26;101082.13;4920615;28;99238;-67
2023/04/20 05:23:22;;;;;;;;;;;;;;;14.02;44.37;101074.81;4905593;28;98018;-67
2023/04/20 05:25:48;;;;;;;;;;;;;;;14.02;44.31;101091.06;4920874;28;98213;-67
2023/04/20 05:28:16;;;;;;;;;;;;;;;14.00;44.26;101088.66;4920047;28;98313;-67
2023/04/20 05:30:43;;;;;;;;;;;;;;;14.02;44.30;101095.69;4921682;28;98204;-66
2023/04/20 05:33:10;;;;;;;;;;;;;;;13.99;44.28;101092.44;4920769;28;99489;-66
2023/04/20 05:35:39;;;;;;;;;;;;;;;14.00;44.62;101094.06;4907163;28;98236;-66
2023/04/20 05:38:06;;;;;;;;;;;;;;;14.05;44.13;101106.78;4905191;28;98296;-66
2023/04/20 05:40:36;;;;;;;;;;;;;;;14.20;43.92;101100.53;4921696;28;98120;-66
2023/04/20 05:43:02;;;;;;;;;;;;;;;14.27;43.97;101095.63;4905589;28;98110;-67
2023/04/20 05:45:29;;;;;;;;;;;;;;;14.32;44.32;101108.34;4918058;28;99986;-67
2023/04/20 05:47:55;;;;;;;;;;;;;;;14.37;44.03;101113.75;4920120;28;97865;-67
2023/04/20 05:50:23;;;;;;;;;;;;;;;14.38;44.49;101112.66;4921168;28;99809;-66
2023/04/20 05:52:50;;;;;;;;;;;;;;;14.42;44.40;101106.41;4915629;28;98566;-66
2023/04/20 05:55:17;;;;;;;;;;;;;;;14.49;43.87;101109.66;4917395;28;97936;-66
2023/04/20 05:57:44;;;;;;;;;;;;;;;14.48;43.97;101115.34;4931085;28;98154;-67
2023/04/20 06:00:11;;;;;;;;;;;;;;;14.47;43.93;101108.28;4916538;28;98036;-67
2023/04/20 06:02:37;;;;;;;;;;;;;;;14.49;43.95;101109.66;4906282;28;98191;-67
2023/04/20 06:05:04;;;;;;;;;;;;;;;14.53;44.17;101115.34;4922134;28;98684;-66
2023/04/20 06:07:31;;;;;;;;;;;;;;;14.56;43.97;101103.94;4919344;28;97938;-67
2023/04/20 06:10:00;;;;;;;;;;;;;;;14.58;43.95;101099.06;4921351;28;98422;-66
2023/04/20 06:12:29;;;;;;;;;;;;;;;14.60;43.99;101087.91;4922491;28;98241;-67
2023/04/20 06:14:56;;;;;;;;;;;;;;;14.63;43.91;101100.94;4921754;28;98236;-66
2023/04/20 06:17:24;;;;;;;;;;;;;;;14.67;43.95;101112.84;4915776;28;98122;-67
2023/04/20 06:19:51;;;;;;;;;;;;;;;14.69;43.94;101113.34;4920878;28;97964;-67
2023/04/20 06:22:19;;;;;;;;;;;;;;;14.77;43.98;101120.91;4921118;28;98078;-67
2023/04/20 06:24:47;;;;;;;;;;;;;;;14.84;44.02;101115.19;4918604;28;98657;-67
2023/04/20 06:27:14;;;;;;;;;;;;;;;14.92;44.04;101109.97;4897642;28;97950;-67
2023/04/20 06:29:42;;;;;;;;;;;;;;;15.00;43.91;101108.56;4921666;28;99582;-67
2023/04/20 06:32:08;;;;;;;;;;;;;;;15.02;43.98;101111.03;4937074;28;98388;-67
2023/04/20 06:34:35;;;;;;;;;;;;;;;15.03;44.05;101116.16;4916943;28;98097;-67
2023/04/20 06:37:04;;;;;;;;;;;;;;;15.05;43.93;101115.88;4920326;28;98365;-67
2023/04/20 06:39:31;;;;;;;;;;;;;;;15.09;44.06;101114.22;4900240;28;98878;-67
2023/04/20 06:41:58;;;;;;;;;;;;;;;15.18;43.57;101115.25;4920998;28;98246;-67
2023/04/20 06:44:25;;;;;;;;;;;;;;;15.32;43.68;101104.56;4920214;28;98068;-67
2023/04/20 06:46:51;;;;;;;;;;;;;;;15.48;43.77;101106.03;4920541;28;98407;-67
2023/04/20 06:49:17;;;;;;;;;;;;;;;15.59;43.71;101101.34;4913589;28;98603;-67
2023/04/20 06:51:44;;;;;;;;;;;;;;;15.67;43.75;101106.19;4906355;28;98050;-67
2023/04/20 06:54:10;;;;;;;;;;;;;;;15.76;43.55;101109.09;4916007;28;98248;-67
2023/04/20 06:56:37;;;;;;;;;;;;;;;15.86;43.53;101107.09;4931316;28;98523;-67
2023/04/20 06:59:04;;;;;;;;;;;;;;;15.93;43.47;101112.19;4919115;28;98162;-67
2023/04/20 07:01:32;;;;;;;;;;;;;;;15.99;43.35;101123.81;4920456;28;98717;-68
2023/04/20 07:04:00;;;;;;;;;;;;;;;16.00;43.42;101123.56;4904993;28;98301;-68
2023/04/20 07:06:27;;;;;;;;;;;;;;;15.99;43.45;101124.63;4918016;28;98206;-68
2023/04/20 07:08:56;;;;;;;;;;;;;;;16.00;43.57;101122.75;4931811;28;98942;-68
2023/04/20 07:11:24;;;;;;;;;;;;;;;16.01;43.56;101124.34;4900004;28;97854;-68
2023/04/20 07:13:51;;;;;;;;;;;;;;;16.03;43.75;101124.88;4920301;28;97994;-68
2023/04/20 07:16:18;;;;;;;;;;;;;;;16.05;43.67;101126.22;4918687;28;99700;-67
2023/04/20 07:18:45;;;;;;;;;;;;;;;16.08;43.61;101130.28;4919221;28;98123;-67
2023/04/20 07:21:14;;;;;;;;;;;;;;;16.12;43.63;101123.16;4905271;28;98140;-67
2023/04/20 07:23:41;;;;;;;;;;;;;;;16.13;43.70;101131.00;4919380;28;98069;-67
2023/04/20 07:26:09;;;;;;;;;;;;;;;16.13;43.77;101132.94;4921485;28;98178;-67
2023/04/20 07:28:37;;;;;;;;;;;;;;;16.11;43.80;101121.50;4920475;28;98188;-67
2023/04/20 07:31:04;;;;;;;;;;;;;;;16.10;43.50;101131.59;4930639;28;97845;-67
2023/04/20 07:33:31;;;;;;;;;;;;;;;16.09;43.87;101137.31;4918019;28;100061;-68
2023/04/20 07:35:59;;;;;;;;;;;;;;;16.10;43.77;101128.88;4930011;28;99498;-67
2023/04/20 07:38:25;;;;;;;;;;;;;;;16.15;43.71;101125.28;4919750;28;98185;-67
2023/04/20 07:40:52;;;;;;;;;;;;;;;16.23;43.60;101119.22;4920917;28;99506;-67
2023/04/20 07:43:20;;;;;;;;;;;;;;;16.27;43.58;101119.44;4916495;28;98496;-67
2023/04/20 07:45:47;;;;;;;;;;;;;;;16.30;43.68;101125.09;4919596;28;98222;-67
2023/04/20 07:48:14;;;;;;;;;;;;;;;16.31;43.66;101124.03;4896349;28;98316;-67
2023/04/20 07:50:42;;;;;;;;;;;;;;;16.36;43.65;101125.88;4918652;28;98682;-67
2023/04/20 07:53:08;;;;;;;;;;;;;;;16.41;43.62;101125.81;4918053;28;97983;-67
2023/04/20 07:55:35;;;;;;;;;;;;;;;16.45;43.67;101118.69;4929268;28;98792;-67
2023/04/20 07:58:02;;;;;;;;;;;;;;;16.47;43.49;101121.13;4917226;28;98243;-67
2023/04/20 08:00:28;;;;;;;;;;;;;;;16.50;43.53;101128.69;4919056;28;97962;-67
2023/04/20 08:02:55;;;;;;;;;;;;;;;16.52;43.47;101121.88;4917180;28;98110;-67
2023/04/20 08:05:23;;;;;;;;;;;;;;;16.53;43.48;101128.91;4898381;28;98085;-67
2023/04/20 08:07:50;;;;;;;;;;;;;;;16.54;43.66;101137.88;4932687;28;98534;-68
2023/04/20 08:10:18;;;;;;;;;;;;;;;16.54;43.58;101132.44;4920390;28;98051;-67
2023/04/20 08:12:45;;;;;;;;;;;;;;;16.55;43.57;101131.38;4917480;28;97907;-67
2023/04/20 08:15:13;;;;;;;;;;;;;;;16.53;43.85;101139.00;4900997;28;98505;-67
2023/04/20 08:17:39;;;;;;;;;;;;;;;16.49;43.65;101133.31;4920782;28;100217;-67
2023/04/20 08:20:09;;;;;;;;;;;;;;;16.52;43.60;101129.22;4921960;28;98799;-67
2023/04/20 08:22:36;;;;;;;;;;;;;;;16.56;43.54;101130.25;4922844;28;98381;-67
2023/04/20 08:25:03;;;;;;;;;;;;;;;16.63;43.62;101128.00;4925383;28;98079;-67
2023/04/20 08:27:30;;;;;;;;;;;;;;;16.73;43.51;101127.03;4926641;28;98249;-68
2023/04/20 08:29:56;;;;;;;;;;;;;;;16.78;43.47;101114.22;4919017;28;98329;-67
2023/04/20 08:32:25;;;;;;;;;;;;;;;16.86;43.47;101119.00;4921171;28;98204;-67
2023/04/20 08:34:52;;;;;;;;;;;;;;;16.95;43.35;101113.72;4918396;28;98339;-67
2023/04/20 08:37:20;;;;;;;;;;;;;;;16.97;43.41;101125.09;4923351;28;98070;-67
2023/04/20 08:39:47;;;;;;;;;;;;;;;16.89;43.52;101123.84;4923085;28;98276;-67
2023/04/20 08:42:15;;;;;;;;;;;;;;;16.77;43.72;101137.09;4898508;28;97950;-68
2023/04/20 08:44:42;;;;;;;;;;;;;;;16.66;43.82;101144.56;4923141;28;98446;-67
2023/04/20 08:47:10;;;;;;;;;;;;;;;16.61;43.91;101152.78;4922311;28;98304;-67
2023/04/20 08:49:40;;;;;;;;;;;;;;;16.59;43.79;101154.97;4915684;28;98121;-67
2023/04/20 08:52:09;;;;;;;;;;;;;;;16.54;43.76;101159.66;4931046;28;98433;-66
2023/04/20 08:54:37;;;;;;;;;;;;;;;16.49;43.79;101146.13;4920300;28;99513;-66
2023/04/20 08:57:04;;;;;;;;;;;;;;;16.48;43.97;101153.47;4923504;28;99897;-65
2023/04/20 08:59:32;;;;;;;;;;;;;;;16.50;43.88;101145.00;4906307;28;98607;-64
2023/04/20 09:02:11;;;;;;;;;;;;;;;16.53;43.94;101152.59;4919463;28;98400;-65
2023/04/20 09:04:38;;;;;;;;;;;;;;;16.62;43.75;101150.84;4922291;28;98244;-64
2023/04/20 09:07:06;;;;;;;;;;;;;;;16.71;43.51;101148.31;4921356;28;98288;-66
2023/04/20 09:09:33;;;;;;;;;;;;;;;16.83;43.49;101151.44;4900710;28;98384;-65
2023/04/20 09:12:08;;;;;;;;;;;;;;;16.95;43.34;101146.38;4933628;28;98301;-66
2023/04/20 09:14:47;;;;;;;;;;;;;;;17.04;43.28;101136.44;4923252;28;97927;-65
2023/04/20 09:17:18;;;;;;;;;;;;;;;17.11;43.24;101138.81;4918206;28;99069;-65
2023/04/20 09:19:49;;;;;;;;;;;;;;;17.12;43.24;101141.22;4923086;28;98290;-66
2023/04/20 09:22:15;;;;;;;;;;;;;;;17.13;43.45;101144.75;4921572;28;98361;-66
2023/04/20 09:24:43;;;;;;;;;;;;;;;17.09;43.36;101147.25;4923290;28;98177;-65
2023/04/20 09:27:17;;;;;;;;;;;;;;;17.09;43.46;101147.25;4904758;28;98418;-65
2023/04/20 09:29:45;;;;;;;;;;;;;;;17.03;43.52;101148.44;4921982;28;97942;-65
2023/04/20 09:32:24;;;;;;;;;;;;;;;17.00;43.66;101154.47;4915994;28;98228;-66
2023/04/20 09:34:51;;;;;;;;;;;;;;;16.92;43.83;101157.84;4917827;28;98043;-66
2023/04/20 09:37:19;;;;;;;;;;;;;;;16.89;43.71;101151.06;4903211;28;97966;-66
2023/04/20 09:39:45;;;;;;;;;;;;;;;16.90;43.70;101141.81;4921597;28;98126;-66
2023/04/20 09:42:13;;;;;;;;;;;;;;;16.95;43.64;101142.84;4900292;28;98212;-66
2023/04/20 09:44:40;;;;;;;;;;;;;;;17.00;43.59;101138.13;4921036;28;98449;-66
2023/04/20 09:47:07;;;;;;;;;;;;;;;17.10;43.55;101131.75;4921570;28;98184;-66
2023/04/20 09:49:34;;;;;;;;;;;;;;;17.11;43.48;101125.19;4937512;28;98358;-66
2023/04/20 09:52:05;;;;;;;;;;;;;;;17.13;43.61;101123.78;4916477;28;98361;-66
2023/04/20 09:54:32;;;;;;;;;;;;;;;17.13;43.38;101123.78;4902560;28;98205;-66
2023/04/20 09:57:03;;;;;;;;;;;;;;;17.20;43.46;101125.31;4922503;28;99673;-66
2023/04/20 09:59:32;;;;;;;;;;;;;;;17.19;43.58;101129.97;4919095;28;98187;-66
2023/04/20 10:01:58;;;;;;;;;;;;;;;17.14;43.71;101130.84;4919775;28;97961;-66
2023/04/20 10:04:25;;;;;;;;;;;;;;;17.10;43.66;101121.66;4933862;28;99061;-67
2023/04/20 10:07:02;;;;;;;;;;;;;;;17.07;43.86;101132.31;4922550;28;97880;-66
2023/04/20 10:09:30;;;;;;;;;;;;;;;16.98;43.87;101126.75;4919455;28;98072;-66
2023/04/20 10:12:08;;;;;;;;;;;;;;;16.89;43.90;101128.47;4898024;28;98242;-66
2023/04/20 10:14:36;;;;;;;;;;;;;;;16.84;44.01;101131.28;4919228;28;98128;-66
2023/04/20 10:17:10;;;;;;;;;;;;;;;16.87;43.90;101122.53;4921251;28;99861;-66
2023/04/20 10:19:40;;;;;;;;;;;;;;;16.86;43.90;101129.09;4920461;28;97981;-66
2023/04/20 10:22:09;;;;;;;;;;;;;;;16.83;43.94;101127.75;4920168;28;98782;-67
2023/04/20 10:24:39;;;;;;;;;;;;;;;16.86;43.91;101126.38;4923486;28;98835;-66
2023/04/20 10:27:18;;;;;;;;;;;;;;;16.90;43.71;101121.97;4916813;28;98130;-66
2023/04/20 10:29:45;;;;;;;;;;;;;;;16.93;43.83;101118.63;4904526;28;97996;-67
2023/04/20 10:32:41;;;;;;;;;;;;;;;17.01;43.64;101112.50;4899760;28;98226;-66
2023/04/20 10:35:12;;;;;;;;;;;;;;;17.11;43.58;101109.66;4918776;28;98092;-66
2023/04/20 10:37:51;;;;;;;;;;;;;;;17.20;43.61;101098.09;4925631;28;98290;-66
2023/04/20 10:40:27;;;;;;;;;;;;;;;17.33;43.42;101081.81;4920877;28;98563;-66
2023/04/20 10:42:53;;;;;;;;;;;;;;;17.47;43.39;101083.75;4921103;28;97974;-66
2023/04/20 10:45:20;;;;;;;;;;;;;;;17.59;43.13;101078.63;4916340;28;99646;-66
2023/04/20 10:47:48;;;;;;;;;;;;;;;17.74;43.13;101083.00;4920537;28;100128;-66
2023/04/20 10:50:17;;;;;;;;;;;;;;;17.86;43.06;101081.44;4896816;28;99740;-66
2023/04/20 10:52:44;;;;;;;;;;;;;;;18.01;42.85;101077.63;4919468;28;97938;-67
2023/04/20 10:55:19;;;;;;;;;;;;;;;18.01;43.10;101083.06;4919895;28;98408;-67
2023/04/20 10:57:48;;;;;;;;;;;;;;;17.97;43.09;101079.34;4899434;28;98143;-67
2023/04/20 11:00:16;;;;;;;;;;;;;;;17.96;43.23;101071.44;4900889;28;99004;-67
2023/04/20 11:02:53;;;;;;;;;;;;;;;18.05;43.17;101075.09;4931300;28;97840;-67
2023/04/20 11:05:23;;;;;;;;;;;;;;;18.08;43.25;101074.50;4904647;28;98469;-67
2023/04/20 11:07:56;;;;;;;;;;;;;;;18.03;43.36;101071.84;4931912;28;98824;-67
2023/04/20 11:10:23;;;;;;;;;;;;;;;18.02;43.25;101071.03;4934832;28;99121;-67
2023/04/20 11:12:51;;;;;;;;;;;;;;;17.96;43.39;101071.44;4919342;28;98137;-67
2023/04/20 11:15:18;;;;;;;;;;;;;;;17.96;43.53;101060.53;4922743;28;99540;-67
2023/04/20 11:17:45;;;;;;;;;;;;;;;17.99;43.49;101068.09;4921016;28;98514;-67
2023/04/20 11:20:14;;;;;;;;;;;;;;;18.01;43.34;101066.72;4920267;28;98383;-67
2023/04/20 11:22:41;;;;;;;;;;;;;;;18.00;43.52;101061.53;4921759;28;98506;-67
2023/04/20 11:25:09;;;;;;;;;;;;;;;17.98;43.53;101061.84;4920314;28;98089;-67
2023/04/20 11:27:36;;;;;;;;;;;;;;;17.99;43.46;101059.94;4917162;28;98170;-68
2023/04/20 11:30:04;;;;;;;;;;;;;;;17.94;43.51;101060.84;4897738;28;98173;-67
2023/04/20 11:32:34;;;;;;;;;;;;;;;17.94;43.80;101068.22;4915550;28;99585;-67
2023/04/20 11:35:10;;;;;;;;;;;;;;;17.89;43.51;101061.75;4915617;28;98114;-67
2023/04/20 11:37:50;;;;;;;;;;;;;;;17.87;43.51;101054.97;4912812;28;98125;-67
2023/04/20 11:40:17;;;;;;;;;;;;;;;17.78;43.74;101065.78;4899356;28;98058;-67
2023/04/20 11:42:43;;;;;;;;;;;;;;;17.67;43.70;101054.22;4920573;28;98065;-67
2023/04/20 11:45:10;;;;;;;;;;;;;;;17.65;43.80;101056.44;4936008;28;98119;-67
2023/04/20 11:47:39;;;;;;;;;;;;;;;17.62;43.80;101048.84;4934821;28;98488;-67
2023/04/20 11:50:06;;;;;;;;;;;;;;;17.66;43.86;101046.34;4921590;28;98284;-68
2023/04/20 11:52:32;;;;;;;;;;;;;;;17.61;43.81;101052.69;4918986;28;98149;-68
2023/04/20 11:55:00;;;;;;;;;;;;;;;17.60;44.02;101047.53;4922650;28;98345;-67
2023/04/20 11:57:27;;;;;;;;;;;;;;;17.59;43.82;101037.75;4918902;28;98177;-68
2023/04/20 11:59:54;;;;;;;;;;;;;;;17.52;43.87;101042.78;4905632;28;98335;-68
2023/04/20 12:02:21;;;;;;;;;;;;;;;17.47;44.18;101040.16;4931819;28;98769;-68
2023/04/20 12:04:49;;;;;;;;;;;;;;;17.48;43.93;101036.31;4924237;28;98553;-67
2023/04/20 12:07:16;;;;;;;;;;;;;;;17.54;44.00;101033.19;4917315;28;99889;-68
2023/04/20 12:09:43;;;;;;;;;;;;;;;17.66;44.00;101030.78;4925957;28;98127;-68
2023/04/20 12:12:10;;;;;;;;;;;;;;;17.76;43.69;101027.09;4921043;28;98153;-68
2023/04/20 12:14:37;;;;;;;;;;;;;;;17.84;43.79;101028.31;4900911;28;98104;-67
2023/04/20 12:17:05;;;;;;;;;;;;;;;17.91;43.68;101034.16;4924887;28;98090;-67
2023/04/20 12:19:32;;;;;;;;;;;;;;;17.98;43.81;101022.88;4918622;28;98618;-67
2023/04/20 12:21:59;;;;;;;;;;;;;;;18.03;43.93;101022.75;4925762;28;98236;-68
2023/04/20 12:24:26;;;;;;;;;;;;;;;18.03;43.81;101028.22;4923922;28;98134;-67
2023/04/20 12:26:53;;;;;;;;;;;;;;;18.03;43.81;101020.03;4922134;28;98069;-67
2023/04/20 12:29:20;;;;;;;;;;;;;;;18.06;44.03;101014.78;4923565;28;97993;-67
2023/04/20 12:31:48;;;;;;;;;;;;;;;18.14;43.93;101014.06;4923233;28;98629;-67
2023/04/20 12:34:14;;;;;;;;;;;;;;;18.34;43.70;101012.81;4899184;28;97975;-68
2023/04/20 12:36:41;;;;;;;;;;;;;;;18.47;43.57;101002.16;4925477;28;98113;-68
2023/04/20 12:39:10;;;;;;;;;;;;;;;18.60;43.54;101002.16;4923219;28;98021;-68